Member area
Imprimable
Wissant, 09-10/09/2017, BEL - Trail de la Côte d'Opale
List of reports > 21km - Result
Search: Page: [1] 2 3
1088 Entries
 
Complains are not accepted anymore. Results are final.
Category
PosNrLicenceNameAgeNATTeamTimeTkmMoy.PlaceNameCity
1.4547PICHONNIER Guillaume37FRACÔTE D'OPALE TR1:24:184:01 14.951sem
2.4490MICHEL Luc39BELHERVE1:25:164:04 14.782sem
3.4177GOSSART Jerome28FRAUS MARQUETTE1:25:404:05 14.713sem
4.52361955571VANSTRAZEELE Mathieu31FRAATHLÉTISME CLUB1:27:504:11 14.354sem
5.4370443157VANDAMME Nicolas26FRA1:29:434:17 14.055sem
6.4178GOSSART Julien30FRA1:30:514:20 13.876sem
7.4963LHEUREUX Daniel45FRASPORT EVASION D1:32:524:26 13.571v1m
8.4993MAQUINGHEN Christophe41FRABOULOGNE ATHLÉT1:33:234:27 13.492v1m
9.4134DUPONT Godefroy19FRA1:33:324:28 13.477sem
10.4958413605PLANCHET Emmanuel54FRATEMPLEUVE1:34:464:31 13.301v2m
11.42721409749HUCHETTE David39FRAUS MARQUETTE1:35:294:33 13.208sem
12.4666COUSIN Anthony38FRA1:37:044:38 12.989sem
13.5120TROCME Julien38FRA1:37:504:40 12.8810sem
14.4255BOIDIN Matthieu41FRA1:38:484:43 12.753v1m
15.49391946305DUBOIS Tony46FRAAS MARCK1:39:034:43 12.724v1m
16.5219BUQUET Jérome43FRAUNIPÉCHE1:39:104:44 12.715v1m
17.5018LABOUSSOLE Olivier42FRA1:39:224:44 12.686v1m
18.4455LOAEC Enora26FRA1:39:254:45 12.6811sem
19.4193541063REGHEM Didier55FRAVAFA1:39:404:45 12.642v2m
20.4417DESCHAMPS Philippe50FRA1:40:384:48 12.523v2m
21.42161954143GUILLEMENT Pierre-Vincent25FRA1:41:034:49 12.4712sem
22.4200DUWATTEZ Sébastien38FRATEAM ST YORRE1:41:044:49 12.4713sem
23.4664SAMOUH Florian29FRAFFV TEAM1:41:144:50 12.4514sem
24.4667GOURNAY Mathieu33FRA1:41:244:50 12.4315sem
25.4374FOURRIER Vincent23FRADECATHLON CALAI1:42:084:52 12.3416sem
26.4750DE SOUSA Paulo42FRA1:42:144:53 12.337v1m
27.48501886567MARCHIENNES Fabien33FRAAS MARCK1:42:304:53 12.2917sem
28.4828LORTHIOIR Sebastien36FRA1:42:304:53 12.2918sem
29.4357RIQUIER Olivier44FRA1:42:314:53 12.298v1m
30.4306HEINE Boris32FRA1:42:594:55 12.2419sem
31.4471BRICE Denimal39FRADIAGOVALE1:43:324:56 12.1720sem
32.5163DEWET Wilfried43FRA1:43:404:57 12.159v1m
33.4829LALY Nicolas34FRANSAEC1:43:574:57 12.1221sem
34.5065HUCHIN Stéphane50FRA1:44:014:58 12.124v2m
35.4398RAUX Thibault33FRA1:44:144:58 12.0922sem
36.48131520815CASTRO Manuel49ESPOGS1:44:374:59 12.0410v1m
37.4322HEBERT Pascal40FRA1:44:405:00 12.0411v1m
38.4382CLERX Arnaud22BELPIPAIX1:44:525:00 12.0223sem
39.5087OPSOMER Bruno37BELPOTES Ô MALTÉS1:44:535:00 12.0124sem
40.4451DUPAS Aurélien25FRA1:46:025:03 11.8825sem
41.4825DUPUIS Didier52FRA1:46:065:04 11.885v2m
42.4369VANDAMME Stéphane51FRA1:46:265:05 11.846v2m
43.5224TORLOTTING Grégory37FRA1:46:305:05 11.8326sem
44.4871MENEGATTI Alexandre37BEL1:46:325:05 11.8327sem
45.5164DUCLOIE Jerome42FRA1:46:335:05 11.8312v1m
46.52231907659BLED Nicolas53FRASOC ATHLETISME1:46:415:05 11.817v2m
47.4377ESTORGUE Jean Luc52FRAASUD1:46:455:05 11.808v2m
48.4583GRARE Adrien28FRA1:46:495:06 11.8028sem
49.5042MIEZE Nicolas39FRA1:47:035:06 11.7729sem
50.4812MARIQUE Jean-Christophe46FRA1:47:175:07 11.7513v1m
51.4142SERGENT Guillaume36FRA1:47:185:07 11.7430sem
52.4920BAQUET Dany51BEL1:47:275:07 11.739v2m
53.4441BOULAY Pascal46FRA1:47:375:08 11.7114v1m
54.5206DENZLER Romain54FRA1:47:395:08 11.7110v2m
55.4435FERMON Patrick48FRA1:47:395:08 11.7015v1m
56.4195PAUCHET Guillaume31FRA1:47:445:08 11.7031sem
57.47701666249ALLO Christophe43FRAUS MARQUETTE1:47:445:08 11.7016v1m
58.49901517920FLEPRINCE Aurelie42FRA1:47:455:08 11.691v1f
59.4128GUENIN Franck43FRAWELNESS COACHIN1:48:115:10 11.6517v1m
60.4986LEPRINCE Vincent41FRA1:48:325:11 11.6118v1m
61.4580MATHON Cedric26DECATHLON ST-MA1:49:075:12 11.5532sem
62.4673DELAPLACE Loïc42FRA1:49:385:14 11.4919v1m
63.5166CREPIN Olivier36FRA1:49:395:14 11.4933sem
64.4680VERSTRAETE Yann37FRA1:49:405:14 11.4934sem
65.4849BAUMANS Benoit45BELRUNASTOCK1:49:465:14 11.4820v1m
66.4383BONNIER Mathieu39BELPIPAIX1:50:185:16 11.4235sem
67.4783PRZYBYLSKI Guillaume38FRA1:50:305:16 11.4036sem
68.46921460553FMONFILS Virginie39FRARUNNING CLUB N1:50:465:17 11.381sef
69.4446DESCHAMPS Juliette46FRA1:51:045:18 11.3521v1m
70.5110CATTEAU Mathias29BELJCBLANDAIN1:51:095:18 11.3437sem
71.4052HONORÉ Pierre25FRA1:51:105:18 11.3438sem
72.4904BUTRUILLE Baptiste23FRA1:51:135:18 11.3339sem
73.4376WARTELLE Jean Dominique49FRACOPENOR RUNNING1:51:165:18 11.3222v1m
74.4375DUFLOS Laurent44FRACOPENOR RUNNING1:51:175:18 11.3223v1m
75.51571579288BLANCHARD Jean-Yves40FRAOGSA1:51:215:19 11.3224v1m
76.4116FROLLAND JACOB Anais27FRA1:51:225:19 11.312sef
77.5108NEMEGHAIRE Benoit35FRA1:51:245:19 11.3140sem
78.4594MACHADO Jeremie41FRAMCT MARQUISE CL1:51:255:19 11.3125v1m
79.4001FGOUTEYRON Perrine37DECATHLON ST-MA1:51:305:19 11.303sef
80.4125TOROSSIAN Francois31FRA1:51:415:20 11.2841sem
81.46841449922DELAPLACE Benjamin29FRACOURIR ENSEMBLE1:51:485:20 11.2742sem
82.4788VANHAEBOST Georges55BEL1:51:495:20 11.2711v2m
83.4786PATIN Serge48BEL1:51:495:20 11.2726v1m
84.4888CALCOEN Guillaume42FRA1:51:515:20 11.2727v1m
85.4172COEUGNET Manu42FRA1:52:075:21 11.2428v1m
86.4008CHEVREAU Dany38DECATHLON ST MA1:52:105:21 11.2343sem
87.4556CROQUELOIS Damien27FRA1:52:265:22 11.2144sem
88.4238HEDGES Gaetan25BEL1:52:265:22 11.2145sem
89.5052BUTRUILLE Basile18FRA1:52:415:22 11.181jum
90.5071LONGUET Remi40FRAPSPG1:52:485:23 11.1729v1m
91.4299CLERX Vincent48BELPIPAIX1:52:515:23 11.1730v1m
92.4174854616PICOT Philippe46FRAS/L ASPTT ROUEN1:53:025:23 11.1531v1m
93.4496SPRIET Arnaud51FRA1:53:085:24 11.1412v2m
94.4114FHAPPIETTE Fanny28FRA1:53:125:24 11.134sef
95.4263REGNIER Frtederic46FRA1:53:285:25 11.1132v1m
96.4603MAHIEZ David47BEL1:53:535:26 11.0633v1m
97.4513CHEDEMAIL François34FRARUNNERS DE BOND1:53:535:26 11.0646sem
98.5082DUTRIEUX Fernand46BELSPIBO1:53:565:26 11.0634v1m
99.48031565067NICOD Philippe54FRAARTOIS ATHLÉTIS1:54:005:26 11.0513v2m
100.4230HABFAST Remi30FRA1:54:075:27 11.0447sem
101.5025DECOCK Michel64BELJCBLANDAIN1:54:125:27 11.031v3m
102.4654VANDERMOLEN Thibaut28FRA1:54:135:27 11.0348sem
103.4308LEPOUTRE Thibaut26FRA1:54:155:27 11.0349sem
104.4935VANDENBROUCKE Guillaume31FRA1:54:175:27 11.0350sem
105.4501VIGLINO Daniel53BELJCPMF FLV1:54:215:27 11.0214v2m
106.4925ROLLAND Edouard39FRA1:54:285:28 11.0151sem
107.5150ROBILLARD Arnaud37FRA1:54:365:28 11.0052sem
108.4483PIGEARD Alexandre33FRA1:54:555:29 10.9753sem
109.4811KEYDENER Joseph39FRA1:55:095:29 10.9454sem
110.4055MORY Romain19FRALMC1:55:175:30 10.9355sem
111.4593FORYCKI Ludovic37FRA1:55:555:32 10.8756sem
112.5184WAMBECQ Michael43FRAHERGNIES ATHLET1:55:585:32 10.8735v1m
113.4815LEULIET Laurent39FRA1:56:065:32 10.8557sem
114.4266LEFETZ Yann38FRA1:56:095:32 10.8558sem
115.4190DELCOURT Thomas29FRA1:56:125:32 10.8459sem
116.5098CARPENTIER Julien35BELSPORTS EVASION1:56:175:33 10.8460sem
117.5113BAILLET Yannick39FRALES VOSGIRUNNER1:56:195:33 10.8361sem
118.4817BABIN Nicolas40FRA1:56:215:33 10.8336v1m
119.4820BABIN Lory36FRA1:56:215:33 10.8362sem
120.5023DELYS Frank49BEL1:56:265:33 10.8237v1m
121.4570FLENOIR Andy38BELTRAILERS DES FA1:56:315:33 10.815sef
122.4461DERONNE Mathieu45BEL1:56:345:34 10.8138v1m
123.4687770032CARDOT Olivier46FRAEADG1:56:365:34 10.8139v1m
124.5058DUVINAGE Lambert28BEL1:56:495:34 10.7963sem
125.4328SOUILLIEZ Guillaume40FRA1:56:515:34 10.7840v1m
126.4171HARSIUCK Gregoire26FRAJOGGING CLUB LI1:56:535:34 10.7864sem
127.4991DELPLACE Jean Noël51FRA1:56:545:34 10.7815v2m
128.4492TIBERGHIEN Lucas26FRA1:57:005:35 10.7765sem
129.4254LEFEBVRE Grégoire26FRA1:57:105:35 10.7566sem
130.5083KEUTGENS Pascal43BEL1:57:155:35 10.7541v1m
131.5128GILDEMEESTER Yannick39BEL1:57:155:35 10.7567sem
132.4932BENAULT Stephane43FRA1:57:195:36 10.7442v1m
133.4917VASSEUR Raphael37FRA1:57:225:36 10.7468sem
134.4368CONSTANT Olivier53FRA1:57:255:36 10.7316v2m
135.4479BAUDE Philippe45FRA1:57:375:37 10.7143v1m
136.4256BENADDI Stéphane45FRA1:57:375:37 10.7144v1m
137.5057DELCOURT François31BEL1:57:385:37 10.7169sem
138.4577WERNIMONT Pierre32BEL1:57:485:37 10.7070sem
139.4390FLEROUGE Erika29FRA1:57:495:37 10.706sef
140.5040BOISTARD Frédéric37FRA1:57:555:37 10.6971sem
141.5039TARET Frederic47FRAKALENJI1:57:555:37 10.6945v1m
142.4724BROQUET Julien32FRA1:57:555:37 10.6972sem
143.4844BOSCOLO Manuel47BELJOGGING'IN ATTI1:58:005:38 10.6846v1m
144.4756LEFEBVRE Maxence19FRAAC CAPELLOIS1:58:025:38 10.6873sem
145.4924DEUEZ Florian32FRA1:58:085:38 10.6774sem
146.5117FPLATIAU Marie36FRA1:58:175:38 10.657sef
147.4450CURE Julien33FRA1:58:235:39 10.6475sem
148.4506TOSTAIN Olivier27FRA1:58:365:39 10.6276sem
149.4942RODRIGUEZ Pascal44FRAWENOVS1:58:435:40 10.6147v1m
150.4938DAQUIN Nicolas21FRA1:58:505:40 10.6077sem
151.4302AAMER Minoun47FRADECATHLON1:58:525:40 10.6048v1m
152.4833BAUDOUIN Jean Marc51FRA1:58:525:40 10.6017v2m
153.5064THIEBAUX Serge52FRATHIERVILLE1:59:035:41 10.5918v2m
154.4545COTTIN Ludovic41FRA1:59:185:41 10.5649v1m
155.4671PINDRAY Didier59FRA1:59:215:41 10.5619v2m
156.5143ANDRE Matthieu29FRA1:59:295:42 10.5578sem
157.48311776723FDELEARDE Melanie26FRA1:59:355:42 10.548sef
158.4016THOMAS Pierre-Olivier48FRA1:59:465:43 10.5250v1m
159.4726SIMON Steve37BEL1:59:475:43 10.5279sem
160.5176DELAMAERE Simon32FRA1:59:485:43 10.5280sem
161.5004DANEL Guillaume42FRA1:59:585:43 10.5051v1m
162.4282LESIEUR BRIDEL Olivier44FRA1:59:595:43 10.5052v1m
163.5174DELAMAERE Julien38FRA2:00:115:44 10.4881sem
164.45341871413MALFOY Benoit34FRAUS METRO2:00:155:44 10.4882sem
165.4878DE LACHAISE Charles41FRA2:00:235:44 10.4753v1m
166.4722ROMMELARD Remi32FRA2:00:265:45 10.4683sem
167.4794FCUVILLON JOUVIN Virginie36FRAFOOTING LOISIR 2:00:275:45 10.469sef
168.4797DELANNOY Antoine33FRA2:00:375:45 10.4584sem
169.4303ROGER Bastien42FRA2:00:405:45 10.4454v1m
170.5081DERONNE Roman24FRA2:00:435:45 10.4485sem
171.5072132192FDENIS Gwendoline25FRAPATRIOTE CROSS 2:00:435:45 10.4410sef
172.50511777159BOIS Stephane48FRAPATRIOTE CROSS 2:00:435:45 10.4455v1m
173.5228TOULEMONDE Benjamin24FRA2:00:505:46 10.4386sem
174.4217ELLART David33FRATEAM ELLART2:00:535:46 10.4287sem
175.5031BUTRUILLE Elliot21FRA2:00:595:46 10.4288sem
176.4011MARGOLLE Christophe49DECATHLON ST MA2:01:105:47 10.4056v1m
177.4605FBONVARLET Lou23FRA2:01:135:47 10.4011sef
178.4296OBIN Alexandre35FRA2:01:185:47 10.3989sem
179.4015LEMOINE Bertrand45DECATHLON ST-MA2:01:235:47 10.3857v1m
180.4131FHOUZE Marine26FRA2:01:265:47 10.3812sef
181.4130MOTTE Guillaume28FRA2:01:275:47 10.3890sem
182.4791DEROUET Julien35FRA2:01:305:48 10.3791sem
183.4239LE COZ Jean Noel49FRA2:01:345:48 10.3658v1m
184.4830FCALLENS Noemie26FRANSAEC2:01:355:48 10.3613sef
185.4997FLECLERCQ Sarah19FRA2:01:355:48 10.3614sef
186.4868FGUFFROY Nathalie35FRA2:01:365:48 10.3615sef
187.4790FPASCAL Camille28FRA2:01:375:48 10.3616sef
188.4053QUEVAL Thibault26FRA2:01:395:48 10.3692sem
189.4229LAMIRAND Cedric40FRA2:01:425:48 10.3559v1m
190.4775VELGHE Henri31BELJC MONTAGNARD2:01:505:49 10.3493sem
191.4916FBLAS Christina31BELJOGG'IN ATTITUD2:01:525:49 10.3417sef
192.4419MOLINA Francis51FRAXTREM CHALLENGE2:01:525:49 10.3420v2m
193.4983OGES Nicolas44FRAETAPLES TRIATHL2:01:555:49 10.3460v1m
194.4185HALLARD Jean François35FRA2:01:565:49 10.3394sem
195.4265GRANDCLAUDE Matthieu38FRA2:02:085:49 10.3295sem
196.4118MONTANARI Eric50FRA2:02:115:50 10.3121v2m
197.4438LEGRAND Matthieu45FRA2:02:125:50 10.3161v1m
198.4887FDELANNOY Laurence53FRA2:02:205:50 10.301v2f
199.4155FCARRA Frederique44FRA2:02:215:50 10.302v1f
200.4746FSANTANDREU Christine30FRARUNNERS DE BOND2:02:225:50 10.3018sef
201.4160COURBOT Pierre34FRA2:02:295:50 10.2996sem
202.5169ASTIER Laurent42FRA2:02:315:51 10.2962v1m
203.4502RAULT Sébastien40FRA2:02:325:51 10.2863v1m
204.4785DUBOIS Dominique43BEL2:02:335:51 10.2864v1m
205.5102VERMEERSCH Olivier38BEL2:02:415:51 10.2797sem
206.4519THIBEAU Arnaud43FRARUNNERS DE BOND2:02:435:51 10.2765v1m
207.5188DEZEGUE Fabien33FRATEAM TRAIL OPAL2:02:455:51 10.2798sem
208.4575MEUNIER Mikael34FRACEGEDIM2:02:465:51 10.2699sem
209.5045LECOINTE Eddy48FRA2:02:535:52 10.2566v1m
210.4056BOUY Romain18FRALMC2:02:545:52 10.252jum
211.4578GOMMARD Romain27FRA2:02:575:52 10.25100sem
212.4486TULOUP Edouard27FRASLOTHTEAM2:02:575:52 10.25101sem
213.4646SCHICKS Yves42FRA2:03:085:52 10.2367v1m
214.4459ROLLION Herve42FRALE GROUPE2:03:125:52 10.2368v1m
215.5084CAPELLE Jerome38FRA2:03:145:53 10.23102sem
216.5141LIENARD Gaetan47FRA2:03:145:53 10.2369v1m
217.5089GERMAIN Grégory43FRA2:03:175:53 10.2270v1m
218.4774VANDENBROUCKE Grégory43FRA2:03:225:53 10.2171v1m
219.4576HENNON Sébastien31FRA2:03:245:53 10.21103sem
220.4391LEROUGE Eric35FRA2:03:255:53 10.21104sem
221.4629GAVOIS Martial61FRA2:03:335:53 10.202v3m
222.4507REYNAERT Louis26FRA2:03:355:54 10.20105sem
223.4508FSENLIS Victoire26FRA2:03:355:54 10.2019sef
224.4437MORNATI Marco37ITA2:03:395:54 10.19106sem
225.4509DUMAINE Benjamin22FRA2:03:465:54 10.18107sem
226.4877WESTRADE Bruno45BEL2:03:465:54 10.1872v1m
227.4882FLAJOLLET Jeremy18FRABARCA2:03:575:55 10.173jum
228.4933MERCIER Frederic45FRA2:03:585:55 10.1673v1m
229.4648SION Lucas19FRA2:04:015:55 10.16108sem
230.4799SOBCZAK Hervé51FRA2:04:025:55 10.1622v2m
231.4503DETOURNAY Thomas42FRA2:04:085:55 10.1574v1m
232.5115OCHIN Guillaume45FRA2:04:095:55 10.1575v1m
233.4473HALLEZ Kevin31FRA2:04:105:55 10.15109sem
234.4278SORET Frédéric43FRA2:04:135:55 10.1476v1m
235.4129DOROT Cedric38FRAPARIS UC2:04:145:55 10.14110sem
236.4262SIS Christian56FRAFABULONS TEAM2:04:235:56 10.1323v2m
237.4851FDELMARRE Helene43FRA2:04:295:56 10.123v1f
238.4674RADON Sebastien42FRA2:04:295:56 10.1277v1m
239.4525FSARLET Julie32BELJOGGING CHAINEU2:04:345:56 10.1220sef
240.4735NATANNI Steeven24FRA2:04:375:57 10.11111sem
241.4384WACOGNE Yannick34FRA2:04:375:57 10.11112sem
242.4695FSAPY Axelle45FRA2:04:395:57 10.114v1f
243.4259ETIENNE Olivier39FRA2:04:475:57 10.10113sem
244.4612LELEU Vincent32FRAVITRI2:04:485:57 10.10114sem
245.4611FVERON Amandine31FRAVATRI2:04:485:57 10.1021sef
246.47921940310CROQUELOIS Nicolas47FRASOC CALAIS ATHL2:04:515:57 10.0978v1m
247.5116STORME Rémy32BEL2:04:535:57 10.09115sem
248.4567BLANC Michael37FRA2:04:585:58 10.08116sem
249.4527BIDOUL Gil34BEL2:04:595:58 10.08117sem
250.4236DOURNEL Antoine26FRA2:05:025:58 10.08118sem
251.5013LAURENT Yannick35FRALES BALTRINGUES2:05:175:58 10.06119sem
252.4973STROBBE Jonathan33FRALES BALTRINGUES2:05:175:58 10.06120sem
253.5210DAVID Emmanuel43FRA2:05:275:59 10.0479v1m
254.4318MUCHERY Olivier43FRA2:05:335:59 10.0480v1m
255.4526VAN ACHTE Christophe43BELMOHA2:05:345:59 10.0481v1m
256.5234RICHARD Vincent43FRA2:05:416:00 10.0382v1m
257.4582VANDECASTEELE Mickael39FRA2:05:436:00 10.02121sem
258.4517PINTEAUX Francois35FRA2:05:466:00 10.02122sem
259.4945ROUSSEAUX Michel36FRA2:05:586:00 10.00123sem
260.4934LYOEN Benjamin34FRA2:05:586:00 10.00124sem
261.4994FDELEPLANQUE Maita31FRA2:06:026:01 10.0022sef
262.4436FRANSEN Koen41BELAVN2:06:126:01 9.9983v1m
263.4658DEGLAVE Fabien41FRA2:06:146:01 9.9884v1m
264.4514LEROY Rudy39FRA2:06:236:02 9.97125sem
265.4353SZEWCZYK Frederic37FRA2:06:276:02 9.96126sem
266.4392DAVID Dany42FRAAC OUTREAU2:06:396:02 9.9585v1m
267.5019LE BARS Antoine18FRALES FAUSSES NOT2:06:426:02 9.944jum
268.4764BERTON Matthieu38FRA2:06:446:03 9.94127sem
269.4154FERRAND Vincent29FRAFFV TEAM2:06:456:03 9.94128sem
270.5080LESPRIT Raphaël43FRA2:06:536:03 9.9386v1m
271.4290DEHAUDT Johnny33FRA2:06:566:03 9.93129sem
272.3175FSAUWAERT Katie46BELBIKEDEVILS PITT2:07:006:03 9.925v1f
273.4271CARRA Valery44FRA2:07:056:04 9.9287v1m
274.4505FMOTTE Alice26FRA2:07:056:04 9.9223sef
275.5137FOUTERET Philippe51FRA2:07:076:04 9.9124v2m
276.4380FDECANTER Cassandre26FRAMUCHERY OLYMPIQ2:07:096:04 9.9124sef
277.4320DHERS Pierre28FRAMUCHERY OLYMPIQ2:07:096:04 9.91130sem
278.4655RENAUT Maxime44FRA2:07:156:04 9.9088v1m
279.4268LEBELLE Stephane42FRATRIATHLON MARCQ2:07:166:04 9.9089v1m
280.4135NACRY Ludovic47FRA2:07:196:04 9.9090v1m
281.5175DELAMAERE Paul34FRA2:07:236:04 9.89131sem
282.4897FBRIQUEMONT Patricia48BEL2:07:256:05 9.896v1f
283.4872LANGHENDRIES François33BELLE HOUYOUX GESV2:07:346:05 9.88132sem
284.2869FAUDET Erwan42FRA2:07:366:05 9.8891v1m
285.5235DIEU Frederic44FRA2:07:366:05 9.8892v1m
286.4156COMPIEGNE Vincent45FRAXTREM CHALLENGE2:07:376:05 9.8793v1m
287.4987OGNIBENE Antoine19BEL2:07:386:05 9.87133sem
288.4836LEFEBVRE Ludovic39FRA2:07:396:05 9.87134sem
289.4951CHRETIEN Jean Michel51FRA2:07:456:05 9.8625v2m
290.4329WAUTHIER Philippe50FRA2:07:466:06 9.8626v2m
291.4859DECONINCK Aurélien28BEL2:07:476:06 9.86135sem
292.4840FELLART Typhanie28FRATEAM ELLART2:07:506:06 9.8625sef
293.4814998790CARPENTIER Jordhy36FRAOGSA2:07:526:06 9.85136sem
294.4442RABOUIN Florent48FRA2:07:556:06 9.8594v1m
295.5129HAMMANT Ben45ZAF2:07:566:06 9.8595v1m
296.4520ROYER Stéphane44FRA2:08:036:06 9.8496v1m
297.4518LEMIERE Joel50FRA2:08:106:07 9.8327v2m
298.5229AGEZ Philippe39FRA2:08:176:07 9.82137sem
299.4776DUBOIS Richard45FRA2:08:376:08 9.8097v1m
300.5020BILLIET Nicolas42FRA2:08:396:08 9.7998v1m
301.5053KNAPEN Benoit43FRA2:08:406:08 9.7999v1m
302.4585URBANSKI Ludovic42FRA2:08:456:08 9.79100v1m
303.4258CANNIE Frank49FRA2:08:486:08 9.78101v1m
304.4716BOUGET Anthony37FRA2:08:506:09 9.78138sem
305.4393HENGER Christophe49FRAASAP2:08:566:09 9.77102v1m
306.5105FBOITEAUX Elodie30BEL2:08:576:09 9.7726sef
307.4454MORAUD Jean-Yves61FRADIGESTSCIENCE2:08:586:09 9.773v3m
308.5214MORONVAL Pascal46FRA2:09:146:10 9.75103v1m
309.4810DUPREZ Julien31FRAVINCENNES TRIAT2:09:166:10 9.75139sem
310.4206DUHEZ Cédric45FRA2:09:186:10 9.75104v1m
311.4903LAMERAND Cesar25FRA2:09:196:10 9.74140sem
312.4571COSSE Victor20FRA2:09:196:10 9.74141sem
313.4702FGUETEMME Romane18FRAGROUPE EMPLIO2:09:256:10 9.741juf
314.4208FHANOULLE-CLAUDEL Christelle41FRA2:09:266:10 9.747v1f
315.4644FAROUX Alain41FRA2:09:316:11 9.73105v1m
316.5041LEFEBVRE Arnaud40FRALOUCH'ANGELES R2:09:376:11 9.72106v1m
317.4632FOLIVIER Anne Sophie44FRA2:09:446:11 9.718v1f
318.4243MAQUET Maxime25FRA2:09:466:11 9.71142sem
319.4191FFAYEULLE Sophie27FRA2:09:496:11 9.7127sef
320.4588BRIGE Matthieu40FRA2:09:506:11 9.71107v1m
321.4444DANDRE Pascal48FRA2:09:516:11 9.70108v1m
322.4223DEGELS David39BEL2:10:026:12 9.69143sem
323.4591BOURSIN Louis27FRA2:10:036:12 9.69144sem
324.47491802541DE SOUSA Emilie40FRAAC VILLENEUVE D2:10:046:12 9.69109v1m
325.4796PALFART Jerome43FRAGENDARMERIE2:10:086:12 9.68110v1m
326.4745POTTIEZ Nicolas37BEL2:10:126:12 9.68145sem
327.4040PETIT Philippe53FRA2:10:256:13 9.6628v2m
328.4635DOUAY Maxime38FRACEGEDIM2:10:486:14 9.63146sem
329.4443DENAGTERGAEL Thierry51BEL2:10:556:15 9.6229v2m
330.4886DEVAUX Nicolas39FRAPURPLE CAT2:10:566:15 9.62147sem
331.5217REYNAUD Vincent31FRA2:11:076:15 9.61148sem
332.4269FDYBIONA DENJEAN Muriel53FRA2:11:116:15 9.612v2f
333.4757PACCOU Alain46FRA2:11:176:16 9.60111v1m
334.4493CATRY Gregoire26FRA2:11:216:16 9.59149sem
335.4020LEVILLAIN Jérémy39FRAGROUPE EMPLIO2:11:246:16 9.59150sem
336.5062FKNAPEN Chrystel41FRA2:11:256:16 9.599v1f
337.4307BEUN Yves-Michael49FRA2:11:266:16 9.59112v1mWIMEREUX
338.4310DERVAUX Claude65BEL2:11:296:16 9.584v3m
339.4427CHOLET Sebastien45FRA2:11:346:16 9.58113v1m
340.4013FPETROVIC Karmen43DECATHLON ST-MA2:11:456:17 9.5610v1f
341.2119CHAMILLARD Arnaud36FRARCA TRIATHLON2:11:466:17 9.56151sem
342.4412BEAUGRAND Alexandre30FRA2:11:466:17 9.56152sem
343.4989OGNIBENE Serge48BEL2:11:486:17 9.56114v1m
344.4494CAPIAUX Fabien49FRA2:11:486:17 9.56115v1m
345.4675DUFOUR Ludovic32FRA2:11:526:17 9.56153sem
346.4710BIREMBAUT Denis52FRA2:11:556:17 9.5530v2m
347.4151ROQUES Bernard47FRACOWBOY SOLITAIR2:11:596:18 9.55116v1m
348.4167FHUNNAULT PEN Senmom42CHM2:12:046:18 9.5411v1f
349.2941CARACINI Marcello55ITAJOG'IN ATTITUDE2:12:066:18 9.5431v2m
350.4662TROUILLE Gaetan42FRAGAJULAN2:12:136:18 9.53117v1m
351.4387MAURY Frederic51FRA2:12:196:19 9.5232v2m
352.4246BOULOGNE Patrick59FRA2:12:216:19 9.5233v2m
353.4007PAQUE Anthony26DECATHLON ST MA2:12:236:19 9.52154sem
354.4316MEURICE Jonathan35FRA2:12:276:19 9.51155sem
355.4311BARBELLION Antoine33FRA2:12:276:19 9.51156sem
356.42211745876FBARDY Vanessa34FRA2:12:316:19 9.5128sef
357.4546LEYSENS Stéphane41FRA2:12:336:19 9.51118v1m
358.4323FHEBERT Alexandra41FRA2:12:346:19 9.5012v1f
359.4468VANTYGHEM Laurent35FRA2:12:376:19 9.50157sem
360.48041263709DELIERS Patrice50FRAARTOIS ATHLETIS2:12:506:20 9.4934v2m
361.4497DE ROCCO Louis24FRA2:12:546:20 9.48158sem
362.4678VERSTRAETE Gerard63FRA2:12:556:20 9.485v3m
363.4915BELLENGIER Olivier40FRACOURIR A COMINE2:13:106:21 9.46119v1m
364.5122FBAILLET Nadege37FRALES VOSGIRUNNER2:13:306:22 9.4429sef
365.5216COLIN Emmanuel47FRALILLE RUNNING T2:13:316:22 9.44120v1m
366.5114JOMBART Jerome46FRA2:13:316:22 9.44121v1m
367.5046DEVOS Alexandre39FRA2:13:376:22 9.43159sem
368.4173GAILLARD Patrice45FRA2:13:406:22 9.43122v1m
369.5167FHAMELET Celine31FRAVOLLEY CLUB LIE2:13:426:22 9.4230sef
370.5076FPETIT Caroline42FRA2:13:446:23 9.4213v1f
371.4295BOURGAIN Pierre45FRA2:13:486:23 9.42123v1m
372.4902DEDRIE Victor25FRA2:13:556:23 9.41160sem
373.4285MICHAUX Martin18FRA2:14:146:24 9.395jum
374.2666FTHOMAS Lydivine40FRATEAM GRAVELINES2:14:146:24 9.3914v1f
375.4026DUBOIS Maxime35FRAGROUPE EMPLIO2:14:176:24 9.38161sem
376.5119FSTUCKI Constance38FRA2:14:186:24 9.3831sef
377.4360BAUDENS Laurent47FRA2:14:186:24 9.38124v1m
378.4581DE ROCCO Franck60FRA2:14:316:25 9.376v3m
379.4475SUPIOT Philippe54FRACOURIR À BAISIE2:14:346:25 9.3635v2m
380.2107FDELARRE Maryline53FRA2:14:346:25 9.363v2f
381.4146GALLETTI Andrea55FRA2:14:356:25 9.3636v2m
382.4969LETUFFE Samuel43FRA2:14:386:25 9.36125v1m
383.4400HOLARD Jean-Luc54FRA2:14:426:25 9.3637v2m
384.5036BRICE Benjamin23FRA2:14:466:26 9.35162sem
385.5070FCOUVELARD Katy43FRA2:14:476:26 9.3515v1f
386.4821FDETANT Manu40FRA2:14:496:26 9.3516v1f
387.5109CABOT Grégoire40FRA2:14:506:26 9.34126v1m
388.4953FFIGOUREUX Sandrine47FRA2:14:516:26 9.3417v1f
389.2242BONNET Jérémie31FRA2:14:536:26 9.34163sem
390.2243FBERGOT Philippine27FRA2:14:536:26 9.3432sef
391.4186MEURICE Nicolas43FRA2:14:586:26 9.34127v1m
392.4188BOUSSEAU Laurent44FRA2:14:586:26 9.34128v1m
393.4361FBAUDENS Diane45FRA2:15:026:26 9.3318v1f
394.4573VINCENT Maxime38FRA2:15:046:26 9.33164sem
395.4930VERRAEST Thibaut33FRA2:15:106:27 9.32165sem
396.4399ANTUNES Philippe52FRA2:15:116:27 9.3238v2m
397.43941932538BOMPARD Eric49FRAJAR RONCQ2:15:126:27 9.32129v1m
398.5017JANKIEWICZ Stanislas55FRA2:15:186:27 9.3139v2m
399.4854GRIMBELLE Laurent41FRA2:15:196:27 9.31130v1m
400.4631HUART Olivier45BELLES 15 PIEDS2:15:236:27 9.31131v1m
401.4742SOKOLOWSKI Norbert44POLBLACKSUN2:15:266:27 9.30132v1m
402.4856LORETTE Nicolas46FRASTI2:15:276:27 9.30133v1m
403.4663FRÉGNIER Christine50FRAAC CAPELLOIS2:15:336:28 9.304v2f
404.4240MARTIN François38BEL2:15:376:28 9.29166sem
405.4565FMOYARD Marie26FRA2:15:396:28 9.2933sef
406.5185FMONNIN Eleonore27FRA2:15:396:28 9.2934sef
407.5190FRARIN Pierre26FRA2:15:396:28 9.29167sem
408.4959FMASSE Camille36FRA2:15:446:28 9.2835sef
409.5208LEROY Olivier43FRA2:15:456:28 9.28134v1m
410.4467NR 4467 XXX2:15:486:28 9.281xxx
411.4422FBOCQUET Charlotte24FRAXTREM CHALLENGE2:15:486:28 9.2836sef
412.4385CARTON Stéphane46FRA2:15:576:29 9.27135v1m
413.4386CONVERT Laurent43FRA2:15:576:29 9.27136v1m
414.4161FCOISNE Melanie34BELADDM OGY2:15:596:29 9.2737sef
415.4977DANHIER Christophe50BELLES POTOS ROSE2:16:076:29 9.2640v2m
416.4324FDUBOIS Stephanie33FRAFOULÉES ATHLÉTI2:16:096:29 9.2638sef
417.4150CHEVRIER Cédric33FRA2:16:096:29 9.26168sem
418.4999BELY Gilbert63FRALES ALLUMÉS2:16:116:30 9.257v3m
419.4743FSOKOLOWSKA Aneta42POLBLACKSUN2:16:176:30 9.2519v1f
420.5194VANNIEUWENHUYSE Pascal49FRA2:16:176:30 9.25137v1m
421.5197DECHERF Matthieu38FRAJOGGING CLUB WO2:16:186:30 9.25169sem
422.5002GARDAVOIR Sébastien26BEL2:16:186:30 9.24170sem
423.4911DANGELO David49FRA2:16:226:30 9.24138v1m
424.4912GUILMIN David47FRA2:16:226:30 9.24139v1m
425.4012NR 4012 XXX2:16:226:30 9.242xxx
426.4458KLEPKA Vincent42FRA2:16:236:30 9.24140v1m
427.4257SKRZYPCZYK Olivier47FRA2:16:236:30 9.24141v1m
428.4276DAVESNE Thierry49FRA2:16:336:31 9.23142v1m
429.4363FMEHAY Angelique39FRAJOGG ACQ2:16:346:31 9.2339sef
430.4557PAYELLE Cédric30FRAHABITAT 62 59 P2:16:356:31 9.23171sem
431.4839HERLIN Clément36FRATEAM HERLIN2:16:386:31 9.22172sem
432.4975MUGUET Romain31FRA2MA - MA MEILLE2:16:436:31 9.22173sem
433.5030VEREMME Olivier39FRA2:16:466:31 9.21174sem
434.5132DEKIOUK Abdelkrim44FRALESCOPIANS2:16:526:32 9.21143v1m
435.5134LEMIEUVRE Mickael34FRALESCOPAINS2:16:526:32 9.21175sem
436.4636DEWINTRE Lionel52FRACEGEDIM2:16:536:32 9.2141v2m
437.4472FAURÉLIE Denimal Dubray39FRADIAGOVALE2:16:566:32 9.2040sef
438.4041BRABANT Benoit41FRA2:17:006:32 9.20144v1m
439.4956GUIOT Daniel58BEL2:17:106:32 9.1942v2m
440.4469FVANTYGHEM Elise25FRA2:17:176:33 9.1841sef
441.4466FVANTYGHEM Sophie27FRA2:17:186:33 9.1842sef
442.4950DEVASSINE Patrick50FRA2:17:246:33 9.1743v2m
443.4532FMALFOY Sophie42FRA2:17:326:33 9.1620v1f
444.4531LEFEVRE Philippe50FRA2:17:326:33 9.1644v2m
445.4158GOUTHIER Guy54BEL2:17:386:34 9.1545v2m
446.2837AUTRICQUE Nicolas31FRATEAM GRAVELINES2:17:416:34 9.15176sem
447.4249VEROUGSTRAETE Damien51BEL2:17:456:34 9.1546v2m
448.4279FLHEUREUX Chloe28FRA2:17:576:35 9.1343sef
449.4751LOOSEN Frédéricq40FRA2:17:586:35 9.13145v1m
450.5118FKARIGER François41BELTRAIL D'UNION2:18:086:35 9.1221v1f
451.4604VANDOORNE Bernard57FRA2:18:116:35 9.1247v2m
452.5168BOYAVAL Pascal48FRAJOGGING CLUB LA2:18:176:36 9.11146v1m
453.5155FBOYAVAL Dominique46FRAJOGGING CLUB LA2:18:176:36 9.1122v1f
454.4918DESABLENS Gauthier31BELARCH2:18:276:36 9.10177sem
455.4707DUCROQUET Bryan26FRAASUD JOGGING2:18:286:36 9.10178sem
456.4281PAPZYCKI Nicolas41FRA2:18:326:36 9.10147v1m
457.5135SALAMON Mathieu35FRA2:18:456:37 9.08179sem
458.5222JOYEZ Frederic35FRA2:18:466:37 9.08180sem
459.5221JOYEZ Olivier35FRA2:18:466:37 9.08181sem
460.4362ROGER Didier38FRAJOGG ACQ TEAM2:18:476:37 9.08182sem
461.4634FRODRIGUEZ Patricia52BELJOGGING ATTITUD2:18:476:37 9.085v2f
462.4476RAZEMON Stéphane55FRA2:18:476:37 9.0848v2m
463.4590HEMBERT Antoine27FRA2:18:486:37 9.08183sem
464.4623FMONTEGNIES Marylène36BELJCHSH2:18:496:37 9.0844sef
465.4754LE MANCQ David32FRA2:18:506:37 9.08184sem
466.4115FBERNARD Lucile35FRAC.O. TRITH ATHL2:18:526:37 9.0745sef
467.4113BERNARD Bertrand41FRAC.O. TRITH ATHL2:18:526:37 9.07148v1m
468.4219NOCAUDIE Fabien35FRARUN&BIKE BACHY2:18:586:38 9.07185sem
469.5213FADRIANSEN Lucile33FRAARTOIS ATHLÉTIS2:19:146:38 9.0546sef
470.4901THERON Sebastien43FRA2:19:186:38 9.05149v1m
471.4683ROLLAND Sylvain28FRADELAPLACE RUNNI2:19:206:39 9.04186sem
472.41641762886FREGHEM Odile45FRAVAFA2:19:296:39 9.0323v1f
473.42701801127FFATOUT Guenola38FRALMA2:19:306:39 9.0347sef
474.4665CASIER Francois45FRA2:19:326:39 9.03150v1m
475.4739VANDEWYNCKEL Olivier45FRA2:19:326:39 9.03151v1m
476.4748RAMON Pascal46FRA2:19:406:40 9.02152v1m
477.4649DANEL Laurent57FRA2:19:486:40 9.0149v2m
478.4449CLAUS Frédéric42BELSPIBO2:19:516:40 9.01153v1m
479.4548FOURDIN Régis55FRA2:19:596:40 9.0050v2m
480.4152DERAM Tony40FRA2:20:006:40 9.00154v1m
481.45361888463MANZANO Manuel32FRA2:20:036:41 9.00187sem
482.3208LELIEVRE Patrick44FRA2:20:076:41 8.99155v1m
483.3411FLEMOINE Sarah36BELÉCLATÉS PERUWEL2:20:116:41 8.9948sef
484.4421FROUFFLE Amélie32FRAXTREM CHALLENGE2:20:246:42 8.9749sef
485.4952FJUSTIN Julie39FRA2:20:246:42 8.9750sef
486.4470FASLAHE Isabelle50FRAGRAVITY2:20:276:42 8.976v2f
487.4126FREVAUX Sophie47FRAGRAVITY2:20:296:42 8.9724v1f
488.4260FMALICE Marie-Paule58FRAALC VIEUX-CONDE2:20:306:42 8.977v2f
489.4009FVIVES SERVERA Sylvie58DECATHLON CALAI2:20:356:42 8.968v2f
490.4181FNOSIEWICZ Cynthia28FRAOWENS 362:20:386:42 8.9651sef
491.4245POITRE Bernard62FRA2:20:396:42 8.968v3m
492.4787FICHÈRE Sylvain48BELRUNNING CLUB ES2:20:446:43 8.95156v1m
493.5131LEMIEUVRE Julien30FRALESCOPAINS2:20:466:43 8.95188sem
494.4226FDUMAS Annabelle37FRA2:20:536:43 8.9452sef
495.4555FGIRARDEAU Sylvia41FRA2:20:566:43 8.9425v1f
496.5056FVANDENBULCKE Marie27BEL2:21:046:44 8.9353sef
497.4809BLOUIN Stephane45FRA2:21:046:44 8.93157v1m
498.4615POCHET Dimitri25BELJCM2:21:096:44 8.93189sem
499.4305FDELPIERRE Julie36FRA2:21:096:44 8.9354sef
500.5009LIEBART Christophe38FRA2:21:186:44 8.92190sem
DNF: did not finish; DSQ: disqualified; Speed in km/h
Page: [1] 2 3